DLH891 EDDN-LEMD
Flight info
| Callsign | DLH891 |
|---|---|
| Flight time | N/A |
| Altitude | 35000 |
| Route | BOLSI1C BOLSI Y166 DKB N869 NATOR DCT LUTIX DCT BENOT DCT NEMOS DCT NINTU/N0432F330 DCT MEBAK/N0437F350 DCT REPSI/N0438F370 DCT LERGA DCT MINSO DCT NARAK DCT AGN DCT MAQAB DCT TIVLI N869 ZAR Z245 TERSA |
| Aircraft | A320/M-SDE3FGHIRWY/LB1 |
Departure
| Time | 2026-04-29 15:57 |
|---|---|
| Airport | Nuremberg Airport (EDDN) |
Arrival
| Time | N/A |
|---|---|
| Airport | Adolfo Suárez Madrid–Barajas Airport (LEMD) |
| Time | Latitude | Longitude | Altitude | Speed | Heading |
|---|---|---|---|---|---|
| 2026-04-29 15:09 | 49.49546 | 11.07596 | 1061 ft | 0 kts | 188° |
| 2026-04-29 15:43 | 49.49545 | 11.07596 | 1061 ft | 0 kts | 188° |
| 2026-04-29 15:43 | 49.49546 | 11.07596 | 1061 ft | 1 kts | 188° |
| 2026-04-29 15:44 | 49.49559 | 11.07599 | 1061 ft | 2 kts | 188° |
| 2026-04-29 15:44 | 49.49565 | 11.07600 | 1061 ft | 3 kts | 188° |
| 2026-04-29 15:45 | 49.49610 | 11.07611 | 1061 ft | 0 kts | 188° |
| 2026-04-29 15:46 | 49.49601 | 11.07602 | 1061 ft | 2 kts | 230° |
| 2026-04-29 15:46 | 49.49599 | 11.07577 | 1061 ft | 0 kts | 277° |
| 2026-04-29 15:47 | 49.49600 | 11.07561 | 1061 ft | 4 kts | 278° |
| 2026-04-29 15:48 | 49.49609 | 11.07467 | 1061 ft | 13 kts | 278° |
| 2026-04-29 15:48 | 49.49618 | 11.07377 | 1061 ft | 0 kts | 279° |
| 2026-04-29 15:48 | 49.49618 | 11.07376 | 1061 ft | 0 kts | 279° |
| 2026-04-29 15:48 | 49.49621 | 11.07353 | 1061 ft | 6 kts | 280° |
| 2026-04-29 15:49 | 49.49642 | 11.07248 | 1061 ft | 14 kts | 322° |
| 2026-04-29 15:49 | 49.49731 | 11.07194 | 1061 ft | 14 kts | 288° |
| 2026-04-29 15:49 | 49.49749 | 11.07005 | 1061 ft | 22 kts | 277° |
| 2026-04-29 15:49 | 49.49772 | 11.06735 | 1061 ft | 29 kts | 278° |
| 2026-04-29 15:50 | 49.49807 | 11.06411 | 1061 ft | 29 kts | 279° |
| 2026-04-29 15:50 | 49.49836 | 11.06138 | 1061 ft | 21 kts | 279° |
| 2026-04-29 15:50 | 49.49859 | 11.06035 | 1061 ft | 0 kts | 311° |
| 2026-04-29 15:51 | 49.49865 | 11.06026 | 1061 ft | 3 kts | 322° |
| 2026-04-29 15:51 | 49.49902 | 11.05989 | 1061 ft | 9 kts | 329° |
| 2026-04-29 15:51 | 49.49916 | 11.05976 | 1061 ft | 0 kts | 330° |
| 2026-04-29 15:52 | 49.49920 | 11.05973 | 1061 ft | 2 kts | 330° |
| 2026-04-29 15:52 | 49.49950 | 11.05946 | 1061 ft | 8 kts | 330° |
| 2026-04-29 15:53 | 49.50020 | 11.05931 | 1061 ft | 13 kts | 5° |
| 2026-04-29 15:53 | 49.50054 | 11.05955 | 1061 ft | 1 kts | 81° |
| 2026-04-29 15:53 | 49.50053 | 11.05965 | 1061 ft | 1 kts | 98° |
| 2026-04-29 15:53 | 49.50053 | 11.05971 | 1061 ft | 0 kts | 98° |
| 2026-04-29 15:54 | 49.50053 | 11.05972 | 1061 ft | 0 kts | 98° |
| 2026-04-29 15:56 | 49.50068 | 11.06103 | 1061 ft | 37 kts | 104° |
| 2026-04-29 15:56 | 49.49968 | 11.06791 | 1061 ft | 91 kts | 98° |
| 2026-04-29 15:57 | 49.49863 | 11.07992 | 1061 ft | 134 kts | 100° |
| 2026-04-29 15:57 | 49.49687 | 11.09573 | 1090 ft | 166 kts | 99° |
| 2026-04-29 15:57 | 49.49483 | 11.11275 | 1596 ft | 155 kts | 100° |
| 2026-04-29 15:57 | 49.49320 | 11.12943 | 2008 ft | 161 kts | 97° |
| 2026-04-29 15:58 | 49.49171 | 11.14670 | 2421 ft | 166 kts | 97° |
| 2026-04-29 15:58 | 49.49000 | 11.16528 | 2753 ft | 185 kts | 98° |
| 2026-04-29 15:58 | 49.48804 | 11.18578 | 3203 ft | 202 kts | 98° |
| 2026-04-29 15:58 | 49.48584 | 11.20815 | 3665 ft | 224 kts | 98° |
| 2026-04-29 15:59 | 49.48300 | 11.23318 | 4138 ft | 253 kts | 107° |
| 2026-04-29 15:59 | 49.47765 | 11.24933 | 4617 ft | 258 kts | 128° |
| 2026-04-29 15:59 | 49.45705 | 11.26793 | 5472 ft | 269 kts | 172° |
| 2026-04-29 15:59 | 49.43843 | 11.26500 | 6174 ft | 270 kts | 200° |
| 2026-04-29 16:00 | 49.42112 | 11.25543 | 6944 ft | 265 kts | 201° |
| 2026-04-29 16:00 | 49.40312 | 11.24828 | 7148 ft | 269 kts | 195° |
| 2026-04-29 16:00 | 49.38452 | 11.24399 | 7200 ft | 271 kts | 191° |
| 2026-04-29 16:00 | 49.36573 | 11.24074 | 7213 ft | 272 kts | 190° |
| 2026-04-29 16:01 | 49.34695 | 11.23787 | 7216 ft | 272 kts | 189° |
| 2026-04-29 16:01 | 49.33435 | 11.23603 | 7345 ft | 276 kts | 191° |
| 2026-04-29 16:01 | 49.31695 | 11.22633 | 8104 ft | 268 kts | 219° |
| 2026-04-29 16:01 | 49.30390 | 11.19552 | 9161 ft | 261 kts | 260° |
| 2026-04-29 16:02 | 49.30282 | 11.17710 | 9732 ft | 259 kts | 267° |
| 2026-04-29 16:02 | 49.29825 | 11.14101 | 10677 ft | 263 kts | 253° |
| 2026-04-29 16:02 | 49.29427 | 11.12293 | 11136 ft | 265 kts | 252° |
| 2026-04-29 16:02 | 49.28869 | 11.09616 | 11778 ft | 268 kts | 255° |
| 2026-04-29 16:03 | 49.28378 | 11.06845 | 12428 ft | 271 kts | 257° |
| 2026-04-29 16:03 | 49.27912 | 11.04045 | 13059 ft | 273 kts | 257° |
| 2026-04-29 16:03 | 49.27439 | 11.01203 | 13676 ft | 276 kts | 257° |
| 2026-04-29 16:03 | 49.26963 | 10.98348 | 14273 ft | 278 kts | 257° |
| 2026-04-29 16:04 | 49.26482 | 10.95461 | 14855 ft | 281 kts | 257° |
| 2026-04-29 16:04 | 49.25996 | 10.92548 | 15433 ft | 284 kts | 257° |
| 2026-04-29 16:04 | 49.25507 | 10.89617 | 16021 ft | 286 kts | 257° |
| 2026-04-29 16:04 | 49.25012 | 10.86649 | 16588 ft | 288 kts | 257° |
| 2026-04-29 16:05 | 49.24512 | 10.83661 | 17140 ft | 291 kts | 257° |
| 2026-04-29 16:05 | 49.24009 | 10.80654 | 17676 ft | 293 kts | 257° |
| 2026-04-29 16:05 | 49.23499 | 10.77609 | 18201 ft | 296 kts | 257° |
| 2026-04-29 16:05 | 49.22983 | 10.74544 | 18711 ft | 298 kts | 256° |
| 2026-04-29 16:06 | 49.22456 | 10.71462 | 19209 ft | 301 kts | 256° |
| 2026-04-29 16:06 | 49.21926 | 10.68368 | 19717 ft | 303 kts | 256° |
| 2026-04-29 16:06 | 49.21391 | 10.65230 | 20209 ft | 305 kts | 256° |
| 2026-04-29 16:06 | 49.20854 | 10.62065 | 20686 ft | 308 kts | 256° |
| 2026-04-29 16:07 | 49.20316 | 10.58894 | 21146 ft | 310 kts | 256° |
| 2026-04-29 16:07 | 49.19770 | 10.55681 | 21597 ft | 313 kts | 256° |
| 2026-04-29 16:07 | 49.19220 | 10.52451 | 22036 ft | 315 kts | 256° |
| 2026-04-29 16:07 | 49.18663 | 10.49184 | 22465 ft | 318 kts | 256° |
| 2026-04-29 16:08 | 49.18104 | 10.45910 | 22882 ft | 320 kts | 256° |
| 2026-04-29 16:08 | 49.17540 | 10.42618 | 23289 ft | 322 kts | 256° |
| 2026-04-29 16:08 | 49.16969 | 10.39285 | 23700 ft | 324 kts | 256° |
| 2026-04-29 16:08 | 49.16396 | 10.35946 | 24094 ft | 327 kts | 256° |
| 2026-04-29 16:09 | 49.15818 | 10.32585 | 24482 ft | 329 kts | 256° |
| 2026-04-29 16:09 | 49.15232 | 10.29184 | 24867 ft | 331 kts | 256° |
| 2026-04-29 16:09 | 49.14603 | 10.25833 | 25236 ft | 334 kts | 251° |
| 2026-04-29 16:09 | 49.13582 | 10.22621 | 25637 ft | 337 kts | 239° |
| 2026-04-29 16:10 | 49.12136 | 10.19754 | 26022 ft | 341 kts | 231° |
| 2026-04-29 16:10 | 49.10591 | 10.17021 | 26320 ft | 344 kts | 233° |
| 2026-04-29 16:10 | 49.09086 | 10.14159 | 26664 ft | 346 kts | 234° |
| 2026-04-29 16:10 | 49.07589 | 10.11261 | 27012 ft | 348 kts | 234° |
| 2026-04-29 16:11 | 49.06087 | 10.08358 | 27365 ft | 350 kts | 234° |
| 2026-04-29 16:11 | 49.04569 | 10.05449 | 27719 ft | 352 kts | 234° |
| 2026-04-29 16:11 | 49.03053 | 10.02567 | 28052 ft | 354 kts | 233° |
| 2026-04-29 16:11 | 49.01505 | 9.99634 | 28379 ft | 356 kts | 233° |
| 2026-04-29 16:12 | 48.99930 | 9.96658 | 28699 ft | 358 kts | 233° |
| 2026-04-29 16:12 | 48.98477 | 9.93916 | 28985 ft | 360 kts | 233° |
| 2026-04-29 16:12 | 48.96901 | 9.90945 | 29282 ft | 362 kts | 233° |
| 2026-04-29 16:12 | 48.95311 | 9.87952 | 29574 ft | 364 kts | 233° |
| 2026-04-29 16:13 | 48.93716 | 9.84955 | 29856 ft | 365 kts | 233° |
| 2026-04-29 16:13 | 48.92112 | 9.81942 | 30129 ft | 367 kts | 233° |
| 2026-04-29 16:13 | 48.90502 | 9.78922 | 30394 ft | 369 kts | 233° |
| 2026-04-29 16:13 | 48.88879 | 9.75879 | 30652 ft | 371 kts | 233° |
| 2026-04-29 16:14 | 48.87257 | 9.72852 | 30901 ft | 372 kts | 233° |
| 2026-04-29 16:14 | 48.85602 | 9.69787 | 31146 ft | 374 kts | 233° |
| 2026-04-29 16:14 | 48.83948 | 9.66725 | 31380 ft | 376 kts | 233° |
| 2026-04-29 16:14 | 48.82290 | 9.63653 | 31610 ft | 377 kts | 233° |
| 2026-04-29 16:15 | 48.80624 | 9.60559 | 31832 ft | 379 kts | 233° |
| 2026-04-29 16:15 | 48.78957 | 9.57464 | 32048 ft | 380 kts | 233° |
| 2026-04-29 16:15 | 48.77299 | 9.54386 | 32255 ft | 381 kts | 233° |
| 2026-04-29 16:15 | 48.75598 | 9.51230 | 32461 ft | 383 kts | 233° |
| 2026-04-29 16:16 | 48.73907 | 9.48098 | 32658 ft | 384 kts | 233° |
| 2026-04-29 16:16 | 48.72213 | 9.44964 | 32849 ft | 385 kts | 233° |
| 2026-04-29 16:16 | 48.70526 | 9.41859 | 33032 ft | 387 kts | 233° |
| 2026-04-29 16:16 | 48.68814 | 9.38713 | 33211 ft | 388 kts | 233° |
| 2026-04-29 16:17 | 48.67097 | 9.35556 | 33387 ft | 389 kts | 233° |
| 2026-04-29 16:17 | 48.65370 | 9.32382 | 33558 ft | 390 kts | 233° |
| 2026-04-29 16:17 | 48.63649 | 9.29217 | 33722 ft | 392 kts | 233° |
| 2026-04-29 16:17 | 48.61905 | 9.26011 | 33883 ft | 393 kts | 233° |
| 2026-04-29 16:18 | 48.60242 | 9.22735 | 34017 ft | 393 kts | 236° |
| 2026-04-29 16:18 | 48.58656 | 9.19351 | 34179 ft | 394 kts | 237° |
| 2026-04-29 16:18 | 48.57094 | 9.15958 | 34333 ft | 395 kts | 237° |
| 2026-04-29 16:18 | 48.55512 | 9.12541 | 34480 ft | 396 kts | 237° |
| 2026-04-29 16:19 | 48.53928 | 9.09153 | 34619 ft | 397 kts | 237° |
| 2026-04-29 16:19 | 48.52330 | 9.05753 | 34753 ft | 398 kts | 237° |
| 2026-04-29 16:19 | 48.50722 | 9.02343 | 34884 ft | 399 kts | 236° |
| 2026-04-29 16:20 | 48.47541 | 8.95611 | 34988 ft | 400 kts | 236° |
| 2026-04-29 16:20 | 48.44326 | 8.88828 | 34995 ft | 400 kts | 236° |
| 2026-04-29 16:21 | 48.41082 | 8.82005 | 34996 ft | 400 kts | 236° |
| 2026-04-29 16:21 | 48.37834 | 8.75189 | 34996 ft | 400 kts | 236° |
| 2026-04-29 16:22 | 48.34587 | 8.68393 | 34996 ft | 401 kts | 236° |
| 2026-04-29 16:22 | 48.31324 | 8.61578 | 34996 ft | 401 kts | 236° |
| 2026-04-29 16:23 | 48.28065 | 8.54791 | 34996 ft | 401 kts | 236° |
| 2026-04-29 16:23 | 48.24817 | 8.48044 | 34996 ft | 401 kts | 236° |
| 2026-04-29 16:24 | 48.21530 | 8.41231 | 34996 ft | 401 kts | 236° |
| 2026-04-29 16:24 | 48.18229 | 8.34579 | 34993 ft | 401 kts | 231° |
| 2026-04-29 16:25 | 48.13993 | 8.29084 | 34996 ft | 406 kts | 215° |
| 2026-04-29 16:25 | 48.09154 | 8.24633 | 34996 ft | 407 kts | 215° |
| 2026-04-29 16:26 | 48.04391 | 8.20046 | 34996 ft | 407 kts | 216° |
| 2026-04-29 16:26 | 47.99648 | 8.15433 | 34996 ft | 407 kts | 216° |
| 2026-04-29 16:27 | 47.94917 | 8.10864 | 34996 ft | 407 kts | 216° |
| 2026-04-29 16:27 | 47.90152 | 8.06283 | 34996 ft | 407 kts | 216° |
| 2026-04-29 16:28 | 47.85395 | 8.01724 | 34996 ft | 407 kts | 216° |
| 2026-04-29 16:28 | 47.80631 | 7.97170 | 34996 ft | 407 kts | 216° |
| 2026-04-29 16:29 | 47.75852 | 7.92614 | 34996 ft | 407 kts | 216° |
| 2026-04-29 16:29 | 47.71077 | 7.88071 | 34996 ft | 407 kts | 215° |
| 2026-04-29 16:30 | 47.66335 | 7.83571 | 34996 ft | 407 kts | 215° |
| 2026-04-29 16:30 | 47.61561 | 7.79050 | 34996 ft | 407 kts | 215° |
| 2026-04-29 16:31 | 47.56777 | 7.74530 | 34996 ft | 407 kts | 215° |
| 2026-04-29 16:31 | 47.52000 | 7.70027 | 34996 ft | 407 kts | 215° |
| 2026-04-29 16:32 | 47.47212 | 7.65523 | 34996 ft | 407 kts | 215° |
| 2026-04-29 16:32 | 47.42431 | 7.61035 | 34996 ft | 407 kts | 215° |
| 2026-04-29 16:33 | 47.35279 | 7.54341 | 34996 ft | 407 kts | 215° |
| 2026-04-29 16:33 | 47.30456 | 7.49838 | 34996 ft | 407 kts | 215° |
| 2026-04-29 16:34 | 47.25704 | 7.45412 | 34996 ft | 407 kts | 215° |
| 2026-04-29 16:34 | 47.20874 | 7.40923 | 34996 ft | 407 kts | 215° |
| 2026-04-29 16:35 | 47.16335 | 7.36084 | 34995 ft | 404 kts | 225° |
| 2026-04-29 16:35 | 47.12686 | 7.29865 | 34997 ft | 401 kts | 234° |
| 2026-04-29 16:36 | 47.09257 | 7.23404 | 34996 ft | 401 kts | 233° |
| 2026-04-29 16:36 | 47.05731 | 7.17045 | 34996 ft | 401 kts | 233° |
| 2026-04-29 16:37 | 47.02210 | 7.10673 | 34996 ft | 401 kts | 233° |
| 2026-04-29 16:37 | 46.99304 | 7.05388 | 34996 ft | 401 kts | 233° |
| 2026-04-29 16:38 | 46.95235 | 6.97974 | 34996 ft | 401 kts | 233° |
| 2026-04-29 16:38 | 46.91732 | 6.91591 | 34996 ft | 401 kts | 233° |
| 2026-04-29 16:39 | 46.88225 | 6.85239 | 34996 ft | 401 kts | 233° |
| 2026-04-29 16:39 | 46.84710 | 6.78898 | 34996 ft | 401 kts | 233° |
| 2026-04-29 16:40 | 46.81195 | 6.72554 | 34996 ft | 401 kts | 233° |
| 2026-04-29 16:40 | 46.77702 | 6.66254 | 34996 ft | 401 kts | 233° |
| 2026-04-29 16:41 | 46.74189 | 6.59930 | 34996 ft | 401 kts | 233° |
| 2026-04-29 16:41 | 46.70669 | 6.53606 | 34996 ft | 401 kts | 233° |
| 2026-04-29 16:42 | 46.67140 | 6.47278 | 34996 ft | 401 kts | 233° |
| 2026-04-29 16:42 | 46.63615 | 6.40973 | 34996 ft | 401 kts | 233° |
| 2026-04-29 16:43 | 46.60110 | 6.34716 | 34996 ft | 401 kts | 233° |
| 2026-04-29 16:43 | 46.56578 | 6.28426 | 34996 ft | 401 kts | 233° |
| 2026-04-29 16:44 | 46.53040 | 6.22139 | 34996 ft | 401 kts | 233° |
| 2026-04-29 16:44 | 46.49496 | 6.15858 | 34996 ft | 401 kts | 233° |
| 2026-04-29 16:45 | 46.46550 | 6.10645 | 34996 ft | 401 kts | 233° |
| 2026-04-29 16:45 | 46.43005 | 6.04386 | 34996 ft | 401 kts | 233° |
| 2026-04-29 16:46 | 46.39457 | 5.98137 | 34996 ft | 401 kts | 232° |
| 2026-04-29 16:46 | 46.35897 | 5.91880 | 34996 ft | 401 kts | 232° |
| 2026-04-29 16:47 | 46.32344 | 5.85650 | 34996 ft | 401 kts | 232° |
| 2026-04-29 16:47 | 46.28784 | 5.79423 | 34996 ft | 401 kts | 232° |
| 2026-04-29 16:48 | 46.25224 | 5.73208 | 34996 ft | 401 kts | 232° |
| 2026-04-29 16:48 | 46.21675 | 5.67027 | 34996 ft | 401 kts | 232° |
| 2026-04-29 16:49 | 46.18101 | 5.60816 | 34996 ft | 402 kts | 232° |
| 2026-04-29 16:49 | 46.14538 | 5.54624 | 34995 ft | 401 kts | 233° |
| 2026-04-29 16:50 | 46.11263 | 5.48111 | 34996 ft | 400 kts | 237° |
| 2026-04-29 16:50 | 46.08108 | 5.41485 | 34996 ft | 400 kts | 237° |
| 2026-04-29 16:51 | 46.04952 | 5.34902 | 34996 ft | 400 kts | 237° |
| 2026-04-29 16:51 | 46.01779 | 5.28305 | 34996 ft | 400 kts | 237° |
| 2026-04-29 16:52 | 45.98605 | 5.21721 | 34996 ft | 400 kts | 237° |
| 2026-04-29 16:52 | 45.95423 | 5.15134 | 34996 ft | 400 kts | 237° |
| 2026-04-29 16:53 | 45.92244 | 5.08566 | 34996 ft | 400 kts | 237° |
| 2026-04-29 16:53 | 45.89059 | 5.02002 | 34996 ft | 400 kts | 237° |
| 2026-04-29 16:54 | 45.85895 | 4.95493 | 34996 ft | 400 kts | 237° |
| 2026-04-29 16:54 | 45.82706 | 4.88949 | 34996 ft | 400 kts | 237° |
| 2026-04-29 16:55 | 45.79513 | 4.82413 | 34996 ft | 400 kts | 237° |
| 2026-04-29 16:55 | 45.76317 | 4.75886 | 34996 ft | 400 kts | 237° |
| 2026-04-29 16:56 | 45.73110 | 4.69351 | 34996 ft | 400 kts | 237° |
| 2026-04-29 16:56 | 45.69882 | 4.62845 | 34995 ft | 401 kts | 235° |
| 2026-04-29 16:57 | 45.66511 | 4.56492 | 34996 ft | 401 kts | 234° |
| 2026-04-29 16:57 | 45.63134 | 4.50137 | 34996 ft | 401 kts | 235° |
| 2026-04-29 16:58 | 45.59783 | 4.43782 | 34996 ft | 401 kts | 235° |
| 2026-04-29 16:58 | 45.56433 | 4.37417 | 34996 ft | 401 kts | 235° |
| 2026-04-29 16:59 | 45.53080 | 4.31050 | 34996 ft | 401 kts | 235° |
| 2026-04-29 16:59 | 45.49753 | 4.24741 | 34996 ft | 401 kts | 235° |
| 2026-04-29 17:00 | 45.46404 | 4.18403 | 34996 ft | 401 kts | 235° |
| 2026-04-29 17:00 | 45.43040 | 4.12048 | 34996 ft | 401 kts | 235° |
| 2026-04-29 17:01 | 45.39681 | 4.05718 | 34996 ft | 401 kts | 235° |
| 2026-04-29 17:01 | 45.36316 | 3.99389 | 34996 ft | 401 kts | 235° |
| 2026-04-29 17:02 | 45.32946 | 3.93063 | 34996 ft | 401 kts | 235° |
| 2026-04-29 17:02 | 45.29572 | 3.86745 | 34996 ft | 401 kts | 235° |
| 2026-04-29 17:03 | 45.26198 | 3.80443 | 34996 ft | 401 kts | 234° |
| 2026-04-29 17:03 | 45.22840 | 3.74182 | 34996 ft | 401 kts | 234° |
| 2026-04-29 17:04 | 45.19456 | 3.67888 | 34996 ft | 401 kts | 234° |
| 2026-04-29 17:04 | 45.16069 | 3.61601 | 34996 ft | 401 kts | 234° |
| 2026-04-29 17:05 | 45.12679 | 3.55323 | 34996 ft | 401 kts | 234° |
| 2026-04-29 17:05 | 45.09285 | 3.49051 | 34996 ft | 401 kts | 234° |
| 2026-04-29 17:06 | 45.05881 | 3.42776 | 34996 ft | 401 kts | 234° |
| 2026-04-29 17:06 | 45.02487 | 3.36531 | 34996 ft | 401 kts | 234° |
| 2026-04-29 17:07 | 44.99104 | 3.30321 | 34996 ft | 401 kts | 234° |
| 2026-04-29 17:07 | 44.95691 | 3.24070 | 34996 ft | 401 kts | 234° |
| 2026-04-29 17:08 | 44.92278 | 3.17832 | 34996 ft | 401 kts | 234° |
| 2026-04-29 17:08 | 44.88866 | 3.11610 | 34996 ft | 401 kts | 234° |
| 2026-04-29 17:09 | 44.85451 | 3.05394 | 34996 ft | 401 kts | 234° |
| 2026-04-29 17:09 | 44.82049 | 2.99217 | 34996 ft | 401 kts | 234° |
| 2026-04-29 17:10 | 44.78620 | 2.93006 | 34996 ft | 401 kts | 234° |
| 2026-04-29 17:10 | 44.75191 | 2.86806 | 34996 ft | 401 kts | 234° |
| 2026-04-29 17:11 | 44.71763 | 2.80622 | 34996 ft | 401 kts | 234° |
| 2026-04-29 17:11 | 44.68326 | 2.74434 | 34996 ft | 401 kts | 234° |
| 2026-04-29 17:12 | 44.64886 | 2.68255 | 34996 ft | 401 kts | 234° |
| 2026-04-29 17:12 | 44.62025 | 2.63127 | 34996 ft | 401 kts | 234° |
| 2026-04-29 17:13 | 44.58027 | 2.55975 | 34996 ft | 401 kts | 234° |
| 2026-04-29 17:13 | 44.54579 | 2.49821 | 34996 ft | 401 kts | 234° |
| 2026-04-29 17:14 | 44.51128 | 2.43675 | 34996 ft | 401 kts | 234° |
| 2026-04-29 17:14 | 44.47666 | 2.37523 | 34996 ft | 401 kts | 234° |
| 2026-04-29 17:15 | 44.44215 | 2.31403 | 34996 ft | 401 kts | 234° |
| 2026-04-29 17:15 | 44.40749 | 2.25271 | 34996 ft | 401 kts | 233° |
| 2026-04-29 17:17 | 44.30356 | 2.06959 | 34996 ft | 401 kts | 233° |
| 2026-04-29 17:17 | 44.26880 | 2.00861 | 34996 ft | 401 kts | 233° |
| 2026-04-29 17:18 | 44.23426 | 1.94814 | 34688 ft | 401 kts | 233° |
| 2026-04-29 17:18 | 44.21683 | 1.91768 | 34235 ft | 399 kts | 233° |
| 2026-04-29 17:18 | 44.19951 | 1.88747 | 33784 ft | 397 kts | 233° |
| 2026-04-29 17:19 | 44.18229 | 1.85752 | 33333 ft | 395 kts | 233° |
| 2026-04-29 17:19 | 44.16515 | 1.82778 | 32883 ft | 393 kts | 233° |
| 2026-04-29 17:19 | 44.14813 | 1.79828 | 32434 ft | 391 kts | 233° |
| 2026-04-29 17:19 | 44.13104 | 1.76873 | 31981 ft | 389 kts | 233° |
| 2026-04-29 17:20 | 44.11434 | 1.73985 | 31536 ft | 387 kts | 233° |
| 2026-04-29 17:20 | 44.09731 | 1.71045 | 31080 ft | 385 kts | 233° |
| 2026-04-29 17:20 | 44.08076 | 1.68189 | 30635 ft | 383 kts | 233° |
| 2026-04-29 17:20 | 44.06403 | 1.65307 | 30183 ft | 381 kts | 233° |
| 2026-04-29 17:21 | 44.04743 | 1.62448 | 29732 ft | 379 kts | 233° |
| 2026-04-29 17:21 | 44.03089 | 1.59603 | 29281 ft | 377 kts | 233° |
| 2026-04-29 17:21 | 44.01443 | 1.56775 | 28830 ft | 375 kts | 233° |
| 2026-04-29 17:21 | 44.01416 | 1.56729 | 28823 ft | 375 kts | 233° |
| 2026-04-29 17:22 | 44.00436 | 1.55045 | 28553 ft | 374 kts | 233° |
| 2026-04-29 17:22 | 43.98801 | 1.52240 | 28102 ft | 372 kts | 233° |
| 2026-04-29 17:22 | 43.97170 | 1.49444 | 27650 ft | 371 kts | 233° |
| 2026-04-29 17:22 | 43.95546 | 1.46662 | 27198 ft | 369 kts | 233° |
| 2026-04-29 17:23 | 43.93955 | 1.43938 | 26753 ft | 367 kts | 233° |
| 2026-04-29 17:23 | 43.92353 | 1.41198 | 26303 ft | 365 kts | 233° |
| 2026-04-29 17:23 | 43.91273 | 1.39354 | 25999 ft | 364 kts | 233° |
| 2026-04-29 17:23 | 43.89164 | 1.35753 | 25401 ft | 362 kts | 233° |
| 2026-04-29 17:24 | 43.87580 | 1.33052 | 24950 ft | 360 kts | 233° |
| 2026-04-29 17:24 | 43.86522 | 1.31248 | 24647 ft | 359 kts | 233° |
| 2026-04-29 17:24 | 43.84948 | 1.28569 | 24196 ft | 357 kts | 233° |
| 2026-04-29 17:24 | 43.83382 | 1.25905 | 23744 ft | 355 kts | 233° |
| 2026-04-29 17:25 | 43.81825 | 1.23258 | 23293 ft | 353 kts | 233° |
| 2026-04-29 17:25 | 43.80298 | 1.20664 | 22848 ft | 351 kts | 233° |
| 2026-04-29 17:25 | 43.78755 | 1.18046 | 22397 ft | 350 kts | 233° |
| 2026-04-29 17:25 | 43.77204 | 1.15416 | 21941 ft | 348 kts | 233° |
| 2026-04-29 17:26 | 43.75695 | 1.12861 | 21496 ft | 346 kts | 233° |
| 2026-04-29 17:26 | 43.74173 | 1.10283 | 21045 ft | 345 kts | 233° |
| 2026-04-29 17:26 | 43.72660 | 1.07724 | 20594 ft | 343 kts | 233° |
| 2026-04-29 17:26 | 43.71149 | 1.05172 | 20142 ft | 341 kts | 233° |
| 2026-04-29 17:27 | 43.69656 | 1.02651 | 19693 ft | 339 kts | 233° |
| 2026-04-29 17:27 | 43.68160 | 1.00129 | 19241 ft | 337 kts | 233° |
| 2026-04-29 17:27 | 43.66675 | 0.97626 | 18790 ft | 335 kts | 233° |
| 2026-04-29 17:27 | 43.65198 | 0.95140 | 18338 ft | 333 kts | 233° |
| 2026-04-29 17:28 | 43.63736 | 0.92679 | 17888 ft | 331 kts | 233° |
| 2026-04-29 17:28 | 43.62279 | 0.90229 | 17437 ft | 329 kts | 233° |
| 2026-04-29 17:28 | 43.60845 | 0.87823 | 16991 ft | 327 kts | 233° |
| 2026-04-29 17:28 | 43.59405 | 0.85407 | 16540 ft | 325 kts | 233° |
| 2026-04-29 17:29 | 43.57959 | 0.82983 | 16084 ft | 322 kts | 233° |
| 2026-04-29 17:29 | 43.56539 | 0.80606 | 15633 ft | 320 kts | 233° |
| 2026-04-29 17:29 | 43.55143 | 0.78270 | 15215 ft | 317 kts | 233° |
| 2026-04-29 17:29 | 43.53758 | 0.75959 | 15046 ft | 306 kts | 233° |
| 2026-04-29 17:30 | 43.52428 | 0.73755 | 15002 ft | 291 kts | 233° |
| 2026-04-29 17:30 | 43.51137 | 0.71622 | 14997 ft | 290 kts | 233° |
| 2026-04-29 17:30 | 43.49847 | 0.69482 | 14994 ft | 290 kts | 233° |
| 2026-04-29 17:30 | 43.48567 | 0.67349 | 14994 ft | 290 kts | 233° |
| 2026-04-29 17:31 | 43.47282 | 0.65202 | 14994 ft | 290 kts | 233° |
| 2026-04-29 17:31 | 43.46001 | 0.63064 | 14994 ft | 290 kts | 233° |
| 2026-04-29 17:31 | 43.44720 | 0.60927 | 14994 ft | 290 kts | 233° |
| 2026-04-29 17:31 | 43.43438 | 0.58791 | 14994 ft | 290 kts | 233° |
| 2026-04-29 17:32 | 43.42152 | 0.56649 | 14994 ft | 290 kts | 233° |
| 2026-04-29 17:32 | 43.40866 | 0.54509 | 14994 ft | 290 kts | 233° |
| 2026-04-29 17:32 | 43.39584 | 0.52378 | 14994 ft | 290 kts | 233° |
| 2026-04-29 17:32 | 43.38294 | 0.50234 | 14994 ft | 290 kts | 233° |
| 2026-04-29 17:33 | 43.37010 | 0.48102 | 14994 ft | 290 kts | 233° |
| 2026-04-29 17:33 | 43.35740 | 0.45996 | 14994 ft | 290 kts | 233° |
| 2026-04-29 17:33 | 43.34454 | 0.43863 | 14994 ft | 290 kts | 233° |
| 2026-04-29 17:33 | 43.33167 | 0.41731 | 14994 ft | 290 kts | 233° |
| 2026-04-29 17:34 | 43.31883 | 0.39605 | 14994 ft | 290 kts | 233° |
| 2026-04-29 17:34 | 43.30597 | 0.37477 | 14994 ft | 290 kts | 233° |
| 2026-04-29 17:34 | 43.29312 | 0.35353 | 14994 ft | 290 kts | 233° |
| 2026-04-29 17:34 | 43.28018 | 0.33215 | 14994 ft | 290 kts | 233° |
| 2026-04-29 17:35 | 43.25864 | 0.29661 | 14994 ft | 290 kts | 233° |
| 2026-04-29 17:35 | 43.24153 | 0.26840 | 14994 ft | 290 kts | 233° |
| 2026-04-29 17:35 | 43.22867 | 0.24722 | 14994 ft | 290 kts | 233° |
| 2026-04-29 17:36 | 43.21577 | 0.22599 | 14994 ft | 290 kts | 233° |
| 2026-04-29 17:36 | 43.20288 | 0.20478 | 14994 ft | 290 kts | 233° |
| 2026-04-29 17:36 | 43.18993 | 0.18349 | 14994 ft | 290 kts | 233° |
| 2026-04-29 17:36 | 43.17706 | 0.16236 | 14994 ft | 290 kts | 233° |
| 2026-04-29 17:37 | 43.16412 | 0.14112 | 14994 ft | 290 kts | 233° |
| 2026-04-29 17:37 | 43.15122 | 0.11997 | 14994 ft | 290 kts | 233° |
| 2026-04-29 17:37 | 43.13829 | 0.09878 | 14994 ft | 290 kts | 233° |
| 2026-04-29 17:37 | 43.12533 | 0.07755 | 14994 ft | 290 kts | 233° |
| 2026-04-29 17:38 | 43.11257 | 0.05668 | 14994 ft | 290 kts | 233° |
| 2026-04-29 17:38 | 43.09964 | 0.03553 | 14994 ft | 290 kts | 233° |
| 2026-04-29 17:38 | 43.08668 | 0.01436 | 14994 ft | 290 kts | 233° |
| 2026-04-29 17:38 | 43.07374 | -0.00678 | 14994 ft | 290 kts | 233° |
| 2026-04-29 17:39 | 43.06077 | -0.02794 | 14994 ft | 290 kts | 233° |
| 2026-04-29 17:39 | 43.04784 | -0.04902 | 14994 ft | 290 kts | 233° |
| 2026-04-29 17:39 | 43.03487 | -0.07016 | 14994 ft | 290 kts | 233° |
| 2026-04-29 17:39 | 43.02204 | -0.09104 | 14994 ft | 290 kts | 233° |
| 2026-04-29 17:40 | 43.00906 | -0.11216 | 14994 ft | 290 kts | 233° |
| 2026-04-29 17:40 | 42.99609 | -0.13325 | 14994 ft | 290 kts | 233° |
| 2026-04-29 17:40 | 42.98310 | -0.15435 | 14994 ft | 290 kts | 233° |
| 2026-04-29 17:40 | 42.97012 | -0.17543 | 14994 ft | 290 kts | 232° |
| 2026-04-29 17:41 | 42.95715 | -0.19647 | 14994 ft | 290 kts | 232° |
| 2026-04-29 17:41 | 42.94412 | -0.21759 | 14994 ft | 290 kts | 232° |
| 2026-04-29 17:41 | 42.93114 | -0.23861 | 14994 ft | 290 kts | 232° |
| 2026-04-29 17:41 | 42.91819 | -0.25959 | 14994 ft | 290 kts | 232° |
| 2026-04-29 17:42 | 42.90515 | -0.28068 | 14994 ft | 290 kts | 232° |
| 2026-04-29 17:42 | 42.89222 | -0.30158 | 14994 ft | 290 kts | 232° |
| 2026-04-29 17:42 | 42.87916 | -0.32268 | 14994 ft | 290 kts | 232° |
| 2026-04-29 17:42 | 42.86614 | -0.34369 | 14994 ft | 290 kts | 232° |
| 2026-04-29 17:43 | 42.85315 | -0.36465 | 14994 ft | 290 kts | 232° |
| 2026-04-29 17:43 | 42.84014 | -0.38561 | 14994 ft | 290 kts | 232° |
| 2026-04-29 17:43 | 42.82727 | -0.40634 | 14950 ft | 290 kts | 232° |
| 2026-04-29 17:43 | 42.81386 | -0.42695 | 14818 ft | 290 kts | 226° |
| 2026-04-29 17:44 | 42.79713 | -0.44264 | 14839 ft | 295 kts | 210° |
| 2026-04-29 17:44 | 42.77770 | -0.45215 | 15031 ft | 300 kts | 200° |
| 2026-04-29 17:44 | 42.75774 | -0.46087 | 15114 ft | 300 kts | 204° |
| 2026-04-29 17:44 | 42.73830 | -0.47111 | 15135 ft | 299 kts | 206° |
| 2026-04-29 17:45 | 42.71896 | -0.48179 | 15140 ft | 299 kts | 206° |
| 2026-04-29 17:45 | 42.69985 | -0.49207 | 15141 ft | 299 kts | 205° |
| 2026-04-29 17:45 | 42.68048 | -0.50232 | 15141 ft | 299 kts | 205° |
| 2026-04-29 17:45 | 42.60740 | -0.54071 | 15141 ft | 299 kts | 205° |
| 2026-04-29 17:46 | 42.44589 | -0.62528 | 15303 ft | 296 kts | 205° |
| 2026-04-29 17:46 | 42.33205 | -0.68461 | 15106 ft | 301 kts | 205° |
| 2026-04-29 17:46 | 42.20365 | -0.75122 | 15230 ft | 300 kts | 205° |
| 2026-04-29 17:46 | 42.16473 | -0.77137 | 15142 ft | 299 kts | 205° |
| 2026-04-29 17:47 | 42.12588 | -0.79145 | 15141 ft | 299 kts | 205° |
| 2026-04-29 17:47 | 42.08694 | -0.81155 | 15141 ft | 299 kts | 205° |
| 2026-04-29 17:47 | 42.04791 | -0.83168 | 15141 ft | 299 kts | 205° |
| 2026-04-29 17:47 | 42.00896 | -0.85171 | 15141 ft | 299 kts | 205° |
| 2026-04-29 17:48 | 41.97047 | -0.87131 | 15141 ft | 299 kts | 205° |
| 2026-04-29 17:48 | 41.93099 | -0.89150 | 15141 ft | 299 kts | 205° |
| 2026-04-29 17:48 | 41.86430 | -0.92565 | 15147 ft | 299 kts | 205° |
| 2026-04-29 17:48 | 41.72905 | -0.99473 | 15382 ft | 302 kts | 205° |
| 2026-04-29 17:49 | 41.69004 | -1.01459 | 15141 ft | 300 kts | 205° |
| 2026-04-29 17:49 | 41.65245 | -1.03811 | 15138 ft | 295 kts | 218° |
| 2026-04-29 17:49 | 41.62200 | -1.07439 | 15144 ft | 292 kts | 226° |
| 2026-04-29 17:49 | 41.59189 | -1.11093 | 15141 ft | 292 kts | 225° |
| 2026-04-29 17:50 | 41.56171 | -1.14724 | 15141 ft | 292 kts | 225° |
| 2026-04-29 17:50 | 41.53134 | -1.18371 | 15141 ft | 292 kts | 225° |
| 2026-04-29 17:50 | 41.50118 | -1.21999 | 15141 ft | 292 kts | 225° |
| 2026-04-29 17:50 | 41.47103 | -1.25626 | 15141 ft | 292 kts | 225° |
| 2026-04-29 17:51 | 41.44107 | -1.29226 | 15141 ft | 292 kts | 225° |
| 2026-04-29 17:51 | 41.41081 | -1.32857 | 15141 ft | 292 kts | 225° |
| 2026-04-29 17:51 | 41.38055 | -1.36482 | 15141 ft | 292 kts | 225° |
| 2026-04-29 17:51 | 41.35016 | -1.40118 | 15141 ft | 292 kts | 225° |
| 2026-04-29 17:52 | 41.31989 | -1.43736 | 15141 ft | 292 kts | 225° |
| 2026-04-29 17:52 | 41.29984 | -1.46130 | 15141 ft | 292 kts | 225° |
| 2026-04-29 17:52 | 41.25927 | -1.50966 | 15141 ft | 293 kts | 225° |
| 2026-04-29 17:52 | 41.22893 | -1.54579 | 15141 ft | 293 kts | 225° |
| 2026-04-29 17:53 | 41.19870 | -1.58172 | 15125 ft | 292 kts | 225° |
| 2026-04-29 17:53 | 41.16861 | -1.61741 | 14373 ft | 289 kts | 225° |
| 2026-04-29 17:53 | 41.13918 | -1.65232 | 13602 ft | 286 kts | 225° |
| 2026-04-29 17:53 | 41.11916 | -1.67603 | 13073 ft | 283 kts | 225° |
| 2026-04-29 17:55 | 40.98034 | -1.83934 | 10053 ft | 272 kts | 225° |
| 2026-04-29 17:55 | 40.96623 | -1.85590 | 10132 ft | 272 kts | 225° |
| 2026-04-29 17:55 | 40.95223 | -1.87235 | 10146 ft | 272 kts | 225° |
| 2026-04-29 17:55 | 40.93812 | -1.88891 | 10149 ft | 272 kts | 225° |
| 2026-04-29 17:56 | 40.92396 | -1.90554 | 10150 ft | 272 kts | 225° |
| 2026-04-29 17:56 | 40.90977 | -1.92217 | 10151 ft | 272 kts | 225° |
| 2026-04-29 17:56 | 40.89565 | -1.93873 | 10151 ft | 272 kts | 225° |
| 2026-04-29 17:56 | 40.85784 | -1.98302 | 10151 ft | 272 kts | 225° |
| 2026-04-29 17:57 | 40.80111 | -2.04934 | 10151 ft | 272 kts | 225° |
| 2026-04-29 17:57 | 40.74453 | -2.11532 | 10150 ft | 272 kts | 225° |
| 2026-04-29 17:57 | 40.68761 | -2.18123 | 10150 ft | 272 kts | 224° |
| 2026-04-29 17:57 | 40.64976 | -2.22502 | 10151 ft | 272 kts | 224° |
| 2026-04-29 17:58 | 40.62413 | -2.25465 | 9939 ft | 269 kts | 224° |
| 2026-04-29 17:58 | 40.60328 | -2.27874 | 9344 ft | 268 kts | 224° |
| 2026-04-29 17:58 | 40.54773 | -2.34286 | 8083 ft | 264 kts | 224° |
| 2026-04-29 17:58 | 40.50264 | -2.39521 | 8151 ft | 264 kts | 230° |
| 2026-04-29 17:59 | 40.49611 | -2.44004 | 8145 ft | 259 kts | 292° |
| 2026-04-29 17:59 | 40.53742 | -2.51948 | 8148 ft | 260 kts | 297° |
| 2026-04-29 17:59 | 40.57227 | -2.61480 | 8151 ft | 259 kts | 293° |
| 2026-04-29 17:59 | 40.58912 | -2.65696 | 8151 ft | 260 kts | 297° |
| 2026-04-29 18:00 | 40.60677 | -2.69864 | 8151 ft | 260 kts | 297° |
| 2026-04-29 18:00 | 40.62437 | -2.74021 | 8151 ft | 260 kts | 297° |
| 2026-04-29 18:00 | 40.64195 | -2.78196 | 8151 ft | 260 kts | 297° |
| 2026-04-29 18:00 | 40.65951 | -2.82362 | 8150 ft | 260 kts | 298° |
| 2026-04-29 18:01 | 40.68886 | -2.88694 | 8151 ft | 261 kts | 299° |
| 2026-04-29 18:01 | 40.72648 | -2.96827 | 8151 ft | 261 kts | 299° |
| 2026-04-29 18:01 | 40.76409 | -3.05010 | 8151 ft | 261 kts | 299° |
| 2026-04-29 18:01 | 40.80150 | -3.13165 | 8151 ft | 260 kts | 299° |
| 2026-04-29 18:02 | 40.83903 | -3.21365 | 8151 ft | 260 kts | 299° |
| 2026-04-29 18:02 | 40.87626 | -3.29542 | 8151 ft | 260 kts | 298° |
| 2026-04-29 18:02 | 40.91217 | -3.37596 | 8146 ft | 260 kts | 292° |
| 2026-04-29 18:02 | 40.92083 | -3.42201 | 8044 ft | 253 kts | 279° |
| 2026-04-29 18:03 | 40.92326 | -3.46623 | 7393 ft | 230 kts | 263° |
| 2026-04-29 18:03 | 40.92064 | -3.48407 | 7110 ft | 226 kts | 259° |
| 2026-04-29 18:04 | 40.89401 | -3.53112 | 5762 ft | 230 kts | 203° |
| 2026-04-29 18:04 | 40.87876 | -3.53942 | 5296 ft | 237 kts | 205° |
| 2026-04-29 18:04 | 40.86343 | -3.54707 | 5184 ft | 236 kts | 196° |
| 2026-04-29 18:04 | 40.84735 | -3.55114 | 5162 ft | 235 kts | 188° |
| 2026-04-29 18:05 | 40.83108 | -3.55432 | 5154 ft | 235 kts | 189° |
| 2026-04-29 18:05 | 40.81496 | -3.55785 | 5151 ft | 235 kts | 189° |
| 2026-04-29 18:05 | 40.79877 | -3.56159 | 5151 ft | 235 kts | 189° |
| 2026-04-29 18:05 | 40.78272 | -3.56109 | 5139 ft | 232 kts | 169° |
| 2026-04-29 18:06 | 40.76755 | -3.55885 | 5085 ft | 203 kts | 179° |
| 2026-04-29 18:06 | 40.75376 | -3.55949 | 4635 ft | 193 kts | 183° |
| 2026-04-29 18:06 | 40.74075 | -3.56030 | 4204 ft | 182 kts | 181° |
| 2026-04-29 18:06 | 40.72816 | -3.56046 | 3672 ft | 178 kts | 180° |
| 2026-04-29 18:07 | 40.71655 | -3.56036 | 3504 ft | 165 kts | 179° |
| 2026-04-29 18:07 | 40.69096 | -3.56022 | 3502 ft | 163 kts | 180° |
| 2026-04-29 18:07 | 40.68341 | -3.56018 | 3488 ft | 163 kts | 180° |